Time;durP1;ratioP1;P1;durP2;ratioP2;P2;SDS_P1;SDS_P2;PMS_P1;PMS_P2;Temp;Humidity;BMP_temperature;BMP_pressure;BME280_temperature;BME280_humidity;BME280_pressure;Samples;Min_cycle;Max_cycle;Signal;HPM_P1;HPM_P2
2021/12/17 00:02:58;;;;;;;70.13;22.77;;;;;;;;;;4991252;28;20511;-76
2021/12/17 00:04:28;;;;;;;67.10;25.67;;;;;;;;;;5008849;28;20045;-76
2021/12/17 00:06:55;;;;;;;59.00;18.70;;;;;;;;;;4971129;28;20023;-76
2021/12/17 00:09:20;;;;;;;61.87;21.00;;;9.00;99.90;;;;;;4971033;28;20038;-76
2021/12/17 00:11:46;;;;;;;64.90;21.47;;;;;;;;;;4971186;28;20039;-76
2021/12/17 00:14:18;;;;;;;78.60;25.90;;;9.10;99.90;;;;;;4970916;28;20031;-76
2021/12/17 00:16:44;;;;;;;57.60;20.80;;;;;;;;;;4973125;28;20480;-76
2021/12/17 00:19:39;;;;;;;68.17;23.57;;;;;;;;;;5008989;28;20038;-76
2021/12/17 00:49:20;;;;;;;;;;;9.00;99.90;;;;;;4975042;28;20085;-76
2021/12/17 00:51:58;;;;;;;70.67;22.00;;;;;;;;;;4974312;28;19906;-76
2021/12/17 00:54:32;;;;;;;62.07;21.03;;;9.10;99.90;;;;;;4989379;28;20023;-76
2021/12/17 00:57:04;;;;;;;57.30;21.27;;;8.90;99.90;;;;;;4973988;28;20019;-76
2021/12/17 00:59:30;;;;;;;68.20;22.77;;;;;;;;;;4982459;28;20072;-76
2021/12/17 01:01:59;;;;;;;57.87;21.17;;;9.00;99.90;;;;;;5012145;28;20034;-76
2021/12/17 01:04:25;;;;;;;75.30;23.53;;;9.20;99.90;;;;;;5028225;28;20112;-76
2021/12/17 01:06:51;;;;;;;58.70;21.00;;;9.00;99.90;;;;;;5011454;28;20423;-76
2021/12/17 01:09:19;;;;;;;71.43;22.53;;;8.90;99.90;;;;;;5011658;28;20030;-76
2021/12/17 01:11:45;;;;;;;62.37;21.60;;;8.90;99.90;;;;;;5013015;28;20034;-76
2021/12/17 01:14:11;;;;;;;61.87;21.83;;;8.90;99.90;;;;;;5012660;28;20065;-76
2021/12/17 01:16:37;;;;;;;67.50;24.33;;;8.80;99.90;;;;;;5010997;28;20069;-76
2021/12/17 01:19:17;;;;;;;82.00;24.77;;;8.60;99.90;;;;;;5012458;28;20021;-76
2021/12/17 01:24:28;;;;;;;62.83;25.47;;;;;;;;;;5010872;28;20128;-76
2021/12/17 01:41:03;;;;;;;85.13;24.70;;;8.80;99.90;;;;;;5005821;28;20088;-76
2021/12/17 01:43:35;;;;;;;78.07;23.67;;;9.20;99.90;;;;;;5010877;28;20057;-76
2021/12/17 01:46:03;;;;;;;59.00;18.23;;;;;;;;;;5011402;28;20087;-76
2021/12/17 01:48:37;;;;;;;48.07;17.40;;;8.80;99.90;;;;;;5012494;28;20030;-76
2021/12/17 01:56:56;;;;;;;47.80;17.97;;;8.90;99.90;;;;;;4973225;28;20077;-76
2021/12/17 01:59:27;;;;;;;50.13;20.30;;;8.90;99.90;;;;;;4972680;28;20038;-76
2021/12/17 02:01:59;;;;;;;47.57;17.97;;;8.90;99.90;;;;;;4972847;28;20027;-76
2021/12/17 02:04:25;;;;;;;47.63;19.30;;;8.90;99.90;;;;;;4973108;28;20045;-76
2021/12/17 02:06:50;;;;;;;45.33;17.07;;;8.90;99.90;;;;;;4972770;28;20023;-76
2021/12/17 02:20:28;;;;;;;44.88;18.83;;;8.90;99.90;;;;;;5011345;28;20501;-76
2021/12/17 02:28:45;;;;;;;46.80;18.65;;;8.80;99.90;;;;;;5010523;28;20044;-76
2021/12/17 02:31:31;;;;;;;36.10;16.20;;;;;;;;;;5010934;28;20021;-76
2021/12/17 02:34:16;;;;;;;39.60;15.17;;;7.40;99.90;;;;;;5010926;28;20108;-76
2021/12/17 02:36:44;;;;;;;39.73;16.40;;;8.90;99.90;;;;;;5010305;28;20026;-76
2021/12/17 02:47:06;;;;;;;45.95;18.98;;;9.00;99.90;;;;;;4991007;28;20100;-76
2021/12/17 02:49:32;;;;;;;44.43;18.73;;;8.90;99.90;;;;;;4992425;28;20487;-76
2021/12/17 02:52:00;;;;;;;54.30;20.00;;;8.90;99.90;;;;;;4991327;28;20156;-76
2021/12/17 02:54:26;;;;;;;56.63;20.97;;;8.90;99.90;;;;;;4990968;28;20029;-76
2021/12/17 02:56:52;;;;;;;50.60;18.43;;;8.90;99.90;;;;;;5006278;28;20034;-76
2021/12/17 02:59:18;;;;;;;51.20;20.77;;;9.00;99.90;;;;;;4989455;28;20146;-76
2021/12/17 03:01:45;;;;;;;49.70;18.13;;;8.80;99.90;;;;;;5009428;28;20081;-76
2021/12/17 03:04:12;;;;;;;63.13;20.77;;;8.90;99.90;;;;;;5010501;28;20588;-76
2021/12/17 03:06:41;;;;;;;57.87;23.07;;;;;;;;;;5010789;28;20071;-76
2021/12/17 03:09:07;;;;;;;58.40;21.30;;;;;;;;;;5024887;28;20022;-76
2021/12/17 03:11:32;;;;;;;57.50;21.53;;;8.80;99.90;;;;;;5024601;28;20379;-76
2021/12/17 03:13:58;;;;;;;54.80;19.70;;;8.80;99.90;;;;;;5010255;28;20033;-76
2021/12/17 03:16:42;;;;;;;43.20;18.67;;;;;;;;;;5010637;28;20053;-76
2021/12/17 03:19:26;;;;;;;48.17;19.97;;;8.80;99.90;;;;;;4999685;28;20033;-76
2021/12/17 03:24:36;;;;;;;47.13;19.42;;;8.70;99.90;;;;;;4991119;28;20041;-76
2021/12/17 03:27:04;;;;;;;48.93;19.97;;;8.70;99.90;;;;;;5005354;28;20424;-76
2021/12/17 03:29:30;;;;;;;52.60;20.80;;;8.80;99.90;;;;;;4991008;28;20026;-76
2021/12/17 03:31:58;;;;;;;46.37;18.53;;;9.00;99.90;;;;;;4990750;28;20415;-76
2021/12/17 03:34:24;;;;;;;46.80;19.03;;;;;;;;;;4990853;28;20018;-76
2021/12/17 03:36:57;;;;;;;42.97;17.30;;;9.00;99.90;;;;;;5004959;28;20027;-76
2021/12/17 03:39:24;;;;;;;45.37;16.63;;;9.00;99.90;;;;;;4990799;28;20518;-76
2021/12/17 03:41:51;;;;;;;44.03;16.90;;;8.70;99.90;;;;;;5019837;28;20034;-76
2021/12/17 03:44:19;;;;;;;39.63;16.30;;;8.90;99.90;;;;;;5010295;28;20041;-76
2021/12/17 03:46:46;;;;;;;59.20;21.37;;;9.00;99.90;;;;;;5025562;28;20030;-76
2021/12/17 03:49:13;;;;;;;46.30;18.13;;;8.90;99.90;;;;;;5009982;28;20402;-76
2021/12/17 03:52:04;;;;;;;45.70;17.87;;;;;;;;;;5010445;28;20028;-76
2021/12/17 03:54:31;;;;;;;49.13;17.70;;;8.90;99.90;;;;;;5025714;28;20018;-76
2021/12/17 03:56:56;;;;;;;41.07;16.30;;;8.90;99.90;;;;;;4994997;28;20065;-76
2021/12/17 03:59:22;;;;;;;54.80;19.40;;;9.00;99.90;;;;;;5005752;28;20046;-76
2021/12/17 04:01:48;;;;;;;51.53;19.37;;;8.80;99.90;;;;;;4990656;28;20428;-76
2021/12/17 04:04:14;;;;;;;50.47;17.63;;;8.90;99.90;;;;;;4990237;28;20488;-76
2021/12/17 04:06:39;;;;;;;65.50;20.27;;;8.80;99.90;;;;;;4992207;28;20058;-76
2021/12/17 04:09:05;;;;;;;61.53;22.33;;;9.40;99.90;;;;;;4994310;28;20026;-76
2021/12/17 04:11:31;;;;;;;54.47;19.17;;;8.80;99.90;;;;;;5004280;28;20088;-76
2021/12/17 04:13:58;;;;;;;61.30;21.13;;;;;;;;;;5013876;28;20033;-76
2021/12/17 04:16:28;;;;;;;53.50;17.37;;;9.00;99.90;;;;;;5013945;28;20831;-76
2021/12/17 04:18:55;;;;;;;57.93;20.37;;;8.80;99.90;;;;;;5013792;28;20029;-76
2021/12/17 04:21:21;;;;;;;57.60;22.63;;;;;;;;;;5007116;28;20476;-76
2021/12/17 04:23:48;;;;;;;61.60;19.17;;;8.70;99.90;;;;;;5009295;28;20503;-76
2021/12/17 04:26:16;;;;;;;53.30;18.73;;;8.90;99.90;;;;;;5008525;28;20176;-76
2021/12/17 04:28:45;;;;;;;48.57;19.83;;;8.90;99.90;;;;;;5009098;28;20030;-76
2021/12/17 04:31:12;;;;;;;42.53;16.17;;;;;;;;;;4992584;28;20113;-76
2021/12/17 04:33:39;;;;;;;49.57;18.37;;;8.90;99.90;;;;;;4994296;28;20033;-76
2021/12/17 04:36:06;;;;;;;48.77;18.07;;;8.80;99.90;;;;;;4995495;28;20061;-76
2021/12/17 04:38:32;;;;;;;52.53;18.07;;;;;;;;;;5013550;28;20038;-76
2021/12/17 04:41:17;;;;;;;42.67;16.90;;;9.00;99.90;;;;;;5013508;28;20057;-76
2021/12/17 04:43:56;;;;;;;42.17;15.77;;;8.90;99.90;;;;;;5013451;28;20045;-76
2021/12/17 04:46:44;;;;;;;43.63;14.47;;;;;;;;;;5008119;28;20033;-76
2021/12/17 04:57:34;;;;;;;39.85;14.10;;;;;;;;;;4993703;28;20458;-76
2021/12/17 05:00:07;;;;;;;53.83;18.63;;;8.90;99.90;;;;;;4993161;28;20106;-76
2021/12/17 05:02:38;;;;;;;49.57;18.40;;;8.90;99.90;;;;;;5007450;28;20022;-76
2021/12/17 05:05:07;;;;;;;38.40;16.80;;;8.90;99.90;;;;;;5028057;28;20120;-76
2021/12/17 05:07:36;;;;;;;41.83;14.87;;;8.90;99.90;;;;;;5011429;28;20060;-76
2021/12/17 05:18:18;;;;;;;46.75;16.95;;;;;;;;;;4970949;28;20146;-76
2021/12/17 05:20:50;;;;;;;44.87;15.80;;;8.90;99.90;;;;;;4971551;28;20037;-76
2021/12/17 05:23:19;;;;;;;34.13;13.00;;;8.90;99.90;;;;;;4970997;28;20034;-76
2021/12/17 05:25:45;;;;;;;33.70;12.23;;;;;;;;;;4970837;28;20043;-76
2021/12/17 05:28:11;;;;;;;45.10;16.10;;;;;;;;;;4971152;28;20243;-76
2021/12/17 05:30:40;;;;;;;42.00;15.97;;;;;;;;;;4971283;28;20520;-76
2021/12/17 05:33:06;;;;;;;40.50;13.97;;;8.80;99.90;;;;;;4989788;28;20040;-76
2021/12/17 05:35:31;;;;;;;39.80;14.20;;;8.80;99.90;;;;;;4990836;28;20038;-76
2021/12/17 05:37:57;;;;;;;37.40;13.27;;;8.90;99.90;;;;;;4990079;28;20499;-76
2021/12/17 05:40:23;;;;;;;41.73;14.87;;;9.00;99.90;;;;;;4974196;28;20038;-76
2021/12/17 05:42:50;;;;;;;36.17;13.03;;;8.70;99.90;;;;;;4974183;28;20085;-76
2021/12/17 05:45:36;;;;;;;54.57;16.83;;;8.90;99.90;;;;;;4979349;28;20078;-76
2021/12/17 05:48:07;;;;;;;47.30;16.67;;;8.90;99.90;;;;;;4970848;28;20507;-76
2021/12/17 05:50:34;;;;;;;37.17;14.27;;;8.80;99.90;;;;;;4971301;28;20396;-76
2021/12/17 05:53:00;;;;;;;36.63;15.00;;;9.00;99.90;;;;;;4986305;28;20062;-76
2021/12/17 05:55:26;;;;;;;40.03;14.57;;;8.90;99.90;;;;;;5007874;28;20030;-76
2021/12/17 05:57:52;;;;;;;39.53;13.97;;;8.80;99.90;;;;;;4992038;28;20113;-76
2021/12/17 06:00:19;;;;;;;47.47;15.63;;;8.80;99.90;;;;;;4992226;28;20061;-76
2021/12/17 06:02:45;;;;;;;41.67;15.97;;;;;;;;;;4990675;28;20065;-76
2021/12/17 06:05:11;;;;;;;47.43;16.93;;;8.60;99.90;;;;;;4990652;28;20496;-76
2021/12/17 06:07:37;;;;;;;47.43;15.47;;;;;;;;;;4991841;28;20455;-76
2021/12/17 06:10:04;;;;;;;41.73;13.87;;;8.90;99.90;;;;;;4991836;28;20031;-76
2021/12/17 06:12:30;;;;;;;43.00;16.33;;;;;;;;;;4992278;28;20034;-76
2021/12/17 06:14:56;;;;;;;40.50;16.17;;;;;;;;;;4997510;28;20026;-77
2021/12/17 06:17:22;;;;;;;46.53;17.07;;;9.00;99.90;;;;;;4991630;28;20053;-77
2021/12/17 06:19:48;;;;;;;40.13;14.77;;;8.90;99.90;;;;;;4992119;28;20476;-76
2021/12/17 06:22:15;;;;;;;46.13;14.67;;;8.90;99.90;;;;;;4990798;28;20027;-78
2021/12/17 06:24:44;;;;;;;39.63;15.17;;;8.90;99.90;;;;;;4991990;28;20451;-77
2021/12/17 06:27:10;;;;;;;41.00;13.77;;;;;;;;;;4991475;28;20037;-76
2021/12/17 06:29:36;;;;;;;41.17;13.63;;;8.90;99.90;;;;;;4991981;28;20029;-77
2021/12/17 06:32:01;;;;;;;39.53;15.17;;;8.90;99.90;;;;;;4991642;28;20034;-77
2021/12/17 06:34:27;;;;;;;39.60;14.60;;;;;;;;;;4991971;28;20034;-76
2021/12/17 06:36:53;;;;;;;46.83;15.60;;;;;;;;;;4991211;28;20479;-77
2021/12/17 06:39:19;;;;;;;53.07;19.47;;;8.90;99.90;;;;;;4991890;28;20061;-76
2021/12/17 06:41:44;;;;;;;49.03;16.77;;;8.80;99.90;;;;;;4991728;28;20069;-76
2021/12/17 06:44:13;;;;;;;57.33;16.17;;;9.00;99.90;;;;;;4992115;28;20487;-76
2021/12/17 07:00:37;;;;;;;44.93;15.13;;;9.00;99.90;;;;;;4991305;28;20037;-77
2021/12/17 07:06:03;;;;;;;;;;;8.80;99.90;;;;;;4991393;28;20041;-76
2021/12/17 07:09:21;;;;;;;45.97;15.47;;;;;;;;;;4991470;28;19967;-76
2021/12/17 07:22:27;;;;;;;86.73;22.60;;;;;;;;;;5008270;28;20034;-76
2021/12/17 07:40:54;;;;;;;51.47;17.67;;;9.70;99.90;;;;;;4993602;28;20094;-76
2021/12/17 07:43:27;;;;;;;58.43;19.43;;;8.70;99.90;;;;;;4972087;28;20133;-76
2021/12/17 07:45:54;;;;;;;46.80;16.83;;;8.90;99.90;;;;;;4988300;28;20029;-76
2021/12/17 07:48:21;;;;;;;46.40;19.03;;;8.80;99.90;;;;;;4987852;28;20046;-76
2021/12/17 07:50:47;;;;;;;54.87;19.77;;;8.60;99.90;;;;;;4988213;28;20023;-76
2021/12/17 07:53:13;;;;;;;57.97;19.37;;;8.80;99.90;;;;;;4988671;28;20042;-76
2021/12/17 07:55:39;;;;;;;59.17;19.53;;;8.80;99.90;;;;;;4990634;28;20442;-76
2021/12/17 07:58:05;;;;;;;60.13;23.10;;;;;;;;;;5019576;28;20044;-76
2021/12/17 08:00:30;;;;;;;49.10;19.87;;;8.80;99.90;;;;;;5025606;28;20026;-76
2021/12/17 08:02:56;;;;;;;54.97;20.03;;;8.80;99.90;;;;;;5009506;28;20104;-76
2021/12/17 08:05:21;;;;;;;54.20;20.13;;;8.90;99.90;;;;;;4996360;28;20026;-76
2021/12/17 08:07:47;;;;;;;64.47;20.77;;;;;;;;;;5004959;28;20539;-76
2021/12/17 08:10:13;;;;;;;72.70;22.57;;;8.90;99.90;;;;;;4997868;28;20026;-76
2021/12/17 08:12:39;;;;;;;51.97;18.67;;;;;;;;;;5009873;28;20033;-76
2021/12/17 08:15:08;;;;;;;52.60;18.67;;;8.90;99.90;;;;;;5009513;28;20026;-76
2021/12/17 08:17:48;;;;;;;48.63;20.33;;;8.90;99.90;;;;;;5024341;28;20060;-75
2021/12/17 08:25:52;;;;;;;43.43;15.83;;;;;;;;;;5008242;28;20038;-74
2021/12/17 08:28:18;;;;;;;36.23;13.93;;;;;;;;;;5009460;28;20026;-74
2021/12/17 08:30:44;;;;;;;36.13;12.80;;;8.90;99.90;;;;;;5009508;28;20022;-74
2021/12/17 08:33:12;;;;;;;30.70;12.20;;;8.90;99.90;;;;;;5009540;28;20065;-74
2021/12/17 08:35:38;;;;;;;29.67;11.53;;;8.90;99.90;;;;;;5008972;28;20021;-74
2021/12/17 08:38:06;;;;;;;28.60;11.83;;;;;;;;;;4993306;28;20026;-74
2021/12/17 08:40:33;;;;;;;32.67;11.63;;;8.90;99.90;;;;;;4990048;28;20034;-75
2021/12/17 08:43:01;;;;;;;29.60;10.90;;;;;;;;;;4989647;28;20117;-75
2021/12/17 08:45:26;;;;;;;30.57;12.73;;;8.80;99.90;;;;;;4989858;28;20019;-74
2021/12/17 08:47:52;;;;;;;25.10;9.97;;;;;;;;;;4989973;28;20036;-74
2021/12/17 08:50:19;;;;;;;23.03;9.13;;;8.50;99.90;;;;;;4990250;28;20061;-74
2021/12/17 08:52:46;;;;;;;19.37;7.27;;;8.80;99.90;;;;;;4991219;28;20041;-74
2021/12/17 08:55:11;;;;;;;21.90;8.73;;;9.00;99.90;;;;;;4993317;28;20030;-74
2021/12/17 08:57:38;;;;;;;18.03;8.80;;;9.00;99.90;;;;;;4993138;28;20029;-75
2021/12/17 09:00:08;;;;;;;19.40;7.73;;;8.90;99.90;;;;;;4992858;28;20029;-75
2021/12/17 09:02:36;;;;;;;21.30;7.17;;;8.90;99.90;;;;;;5000155;28;20029;-74
2021/12/17 09:05:03;;;;;;;20.83;8.30;;;8.90;99.90;;;;;;4996639;28;20057;-74
2021/12/17 09:07:29;;;;;;;19.57;7.43;;;;;;;;;;4993691;28;20044;-74
2021/12/17 09:09:55;;;;;;;16.63;8.10;;;9.20;99.90;;;;;;5008096;28;20136;-74
2021/12/17 09:12:21;;;;;;;15.57;7.30;;;9.10;99.90;;;;;;4993397;28;20027;-74
2021/12/17 09:14:46;;;;;;;23.17;8.63;;;;;;;;;;4992977;28;20528;-74
2021/12/17 09:17:12;;;;;;;20.30;7.90;;;9.20;99.90;;;;;;4992826;28;20047;-74
2021/12/17 09:19:38;;;;;;;17.93;7.97;;;9.20;99.90;;;;;;4993052;28;20395;-74
2021/12/17 09:22:04;;;;;;;19.10;8.87;;;;;;;;;;4993010;28;20134;-74
2021/12/17 09:24:30;;;;;;;17.40;6.73;;;;;;;;;;4993211;28;20463;-74
2021/12/17 09:26:55;;;;;;;16.63;7.60;;;9.00;99.90;;;;;;4992984;28;20042;-74
2021/12/17 09:29:21;;;;;;;15.47;6.53;;;;;;;;;;4992407;28;20066;-74
2021/12/17 09:31:47;;;;;;;15.83;7.33;;;;;;;;;;4992738;28;20523;-74
2021/12/17 09:34:13;;;;;;;18.17;6.97;;;;;;;;;;4992087;28;20034;-74
2021/12/17 09:36:39;;;;;;;24.33;8.27;;;8.90;99.90;;;;;;4993142;28;20084;-74
2021/12/17 09:39:05;;;;;;;18.70;8.30;;;;;;;;;;4992433;28;20495;-74
2021/12/17 09:41:30;;;;;;;15.17;7.37;;;;;;;;;;4992808;28;20034;-74
2021/12/17 09:43:56;;;;;;;14.63;7.57;;;;;;;;;;4991463;28;20042;-74
2021/12/17 09:46:22;;;;;;;18.67;8.17;;;8.80;99.90;;;;;;4992611;28;20030;-75
2021/12/17 09:48:49;;;;;;;14.97;7.20;;;7.30;99.90;;;;;;4992461;28;20028;-74
2021/12/17 09:51:16;;;;;;;15.90;7.27;;;8.70;99.90;;;;;;5007365;28;20030;-74
2021/12/17 09:53:42;;;;;;;14.07;7.10;;;8.90;99.90;;;;;;4992207;28;20030;-74
2021/12/17 09:56:08;;;;;;;11.93;6.20;;;;;;;;;;5007129;28;20077;-74
2021/12/17 09:58:34;;;;;;;8.83;5.27;;;;;;;;;;4998046;28;20124;-74
2021/12/17 10:01:00;;;;;;;9.50;5.23;;;9.00;99.90;;;;;;4994563;28;20105;-74
2021/12/17 10:03:27;;;;;;;7.60;3.83;;;8.90;99.90;;;;;;5011854;28;20034;-74
2021/12/17 10:05:53;;;;;;;8.27;4.07;;;9.00;99.90;;;;;;5011711;28;20156;-74
2021/12/17 10:08:21;;;;;;;7.47;4.00;;;8.90;99.90;;;;;;5011753;28;20033;-74
2021/12/17 10:10:58;;;;;;;6.43;3.57;;;8.80;99.90;;;;;;4995389;28;20112;-74
2021/12/17 10:13:33;;;;;;;6.23;3.70;;;9.10;99.90;;;;;;5006680;28;20483;-73
2021/12/17 10:16:06;;;;;;;7.37;4.20;;;8.90;99.90;;;;;;4991380;28;20502;-74
2021/12/17 10:18:45;;;;;;;9.73;4.68;;;8.90;99.90;;;;;;4992097;28;20092;-73
2021/12/17 10:21:23;;;;;;;7.90;4.27;;;8.90;99.90;;;;;;4991790;28;20027;-74
2021/12/17 10:23:51;;;;;;;7.73;4.50;;;8.90;99.90;;;;;;4999858;28;20042;-74
2021/12/17 10:26:20;;;;;;;6.07;3.80;;;9.00;99.90;;;;;;5011534;28;20341;-74
2021/12/17 10:28:56;;;;;;;7.93;4.90;;;8.90;99.90;;;;;;5026215;28;20029;-74
2021/12/17 10:31:22;;;;;;;6.07;4.10;;;;;;;;;;5011016;28;20030;-73
2021/12/17 10:33:53;;;;;;;5.97;4.83;;;8.70;99.90;;;;;;5006528;28;20096;-73
2021/12/17 10:36:33;;;;;;;7.37;4.53;;;8.80;99.90;;;;;;4992877;28;20054;-75
2021/12/17 10:39:03;;;;;;;6.50;4.00;;;9.00;99.90;;;;;;4991371;28;20038;-75
2021/12/17 10:41:28;;;;;;;7.57;5.53;;;9.10;99.90;;;;;;4991488;28;20026;-75
2021/12/17 10:43:59;;;;;;;7.23;4.47;;;9.20;99.90;;;;;;4991386;28;20069;-75
2021/12/17 10:48:56;;;;;;;8.13;5.30;;;9.10;99.90;;;;;;5003267;28;20364;-75
2021/12/17 10:54:08;;;;;;;7.43;4.47;;;9.10;99.90;;;;;;4991403;28;20026;-75
2021/12/17 10:56:38;;;;;;;7.10;3.90;;;9.10;99.90;;;;;;5006365;28;20023;-75
2021/12/17 10:59:09;;;;;;;6.07;3.73;;;9.10;99.90;;;;;;4991370;28;20030;-75
2021/12/17 11:01:41;;;;;;;5.53;3.20;;;9.00;99.90;;;;;;4991615;28;20471;-73
2021/12/17 11:04:11;;;;;;;5.73;3.40;;;9.00;99.90;;;;;;5007995;28;20034;-75
2021/12/17 11:06:48;;;;;;;6.07;3.73;;;9.00;99.90;;;;;;5010885;28;20036;-75
2021/12/17 11:09:34;;;;;;;6.87;4.03;;;9.20;99.90;;;;;;5010254;28;20099;-75
2021/12/17 11:12:06;;;;;;;6.33;3.83;;;9.30;99.90;;;;;;5010053;28;20125;-75
2021/12/17 11:14:32;;;;;;;6.27;3.47;;;;;;;;;;5010821;28;20036;-75
2021/12/17 11:16:58;;;;;;;4.03;2.90;;;;;;;;;;5008363;28;20042;-76
2021/12/17 11:19:24;;;;;;;4.50;2.93;;;9.50;99.90;;;;;;5010836;28;20032;-75
2021/12/17 11:21:50;;;;;;;4.90;2.10;;;;;;;;;;5008784;28;20134;-75
2021/12/17 11:24:16;;;;;;;5.07;2.40;;;9.30;99.90;;;;;;5010601;28;20114;-75
2021/12/17 11:26:43;;;;;;;4.87;2.40;;;9.30;99.90;;;;;;5010243;28;20022;-76
2021/12/17 11:29:10;;;;;;;3.50;2.43;;;9.10;99.90;;;;;;5008937;28;20113;-75
2021/12/17 11:31:36;;;;;;;4.23;2.00;;;9.20;99.90;;;;;;4990587;28;20069;-76
2021/12/17 11:34:02;;;;;;;4.03;2.83;;;;;;;;;;4990679;28;20062;-76
2021/12/17 11:36:28;;;;;;;4.37;2.37;;;9.20;99.90;;;;;;4989507;28;20034;-75
2021/12/17 11:39:20;;;;;;;7.27;3.00;;;9.30;99.90;;;;;;4991385;28;20037;-75
2021/12/17 11:41:52;;;;;;;6.67;3.20;;;9.20;99.90;;;;;;4990275;28;20484;-75
2021/12/17 11:44:20;;;;;;;5.93;3.53;;;9.10;99.90;;;;;;5004594;28;20042;-75
2021/12/17 11:47:01;;;;;;;6.63;3.27;;;9.00;99.90;;;;;;4989921;28;20076;-75
2021/12/17 11:49:29;;;;;;;7.70;3.27;;;9.00;99.90;;;;;;4990866;28;20057;-75
2021/12/17 11:51:55;;;;;;;5.60;3.30;;;9.00;99.90;;;;;;4990454;28;20019;-76
2021/12/17 11:54:29;;;;;;;5.13;3.40;;;9.10;99.90;;;;;;4988622;28;20030;-76
2021/12/17 11:57:05;;;;;;;7.03;3.20;;;9.40;99.90;;;;;;4990242;28;20030;-76
2021/12/17 11:59:34;;;;;;;4.73;2.83;;;9.00;99.90;;;;;;4990505;28;20109;-75
2021/12/17 12:02:03;;;;;;;5.33;2.17;;;9.10;99.90;;;;;;4989274;28;20022;-73
2021/12/17 12:04:32;;;;;;;3.47;2.23;;;8.90;99.90;;;;;;4990590;28;20073;-76
2021/12/17 12:07:02;;;;;;;3.50;2.03;;;9.00;99.90;;;;;;4997090;28;20034;-75
2021/12/17 12:09:59;;;;;;;4.10;2.47;;;8.80;99.90;;;;;;5025063;28;20030;-76
2021/12/17 12:12:50;;;;;;;3.67;2.47;;;9.10;99.90;;;;;;5010278;28;20730;-75
2021/12/17 12:15:27;;;;;;;4.43;2.10;;;8.80;99.90;;;;;;4991975;28;20034;-75
2021/12/17 12:18:03;;;;;;;1.97;1.40;;;9.00;99.90;;;;;;4990151;28;20035;-74
2021/12/17 12:20:50;;;;;;;2.10;1.30;;;8.80;99.90;;;;;;5005501;28;20109;-75
2021/12/17 12:23:21;;;;;;;3.80;1.77;;;8.90;99.90;;;;;;5006870;28;20038;-74
2021/12/17 12:26:11;;;;;;;2.47;1.43;;;8.90;99.90;;;;;;5009954;28;20475;-75
2021/12/17 12:28:54;;;;;;;4.43;1.90;;;7.60;99.90;;;;;;5012761;28;20117;-75
2021/12/17 12:31:26;;;;;;;2.17;1.80;;;9.00;99.90;;;;;;5013827;28;20066;-75
2021/12/17 12:34:06;;;;;;;1.77;1.17;;;8.80;99.90;;;;;;5013599;28;20021;-75
2021/12/17 12:36:46;;;;;;;3.23;2.00;;;9.10;99.90;;;;;;5029082;28;20116;-75
2021/12/17 12:39:22;;;;;;;2.77;1.73;;;9.10;99.90;;;;;;5003936;28;20606;-75
2021/12/17 12:42:02;;;;;;;1.87;1.37;;;9.10;99.90;;;;;;4992817;28;20105;-75
2021/12/17 12:44:39;;;;;;;2.10;1.20;;;9.20;99.90;;;;;;4993931;28;20184;-75
2021/12/17 12:47:06;;;;;;;2.23;1.60;;;9.00;99.90;;;;;;4992703;28;20030;-74
2021/12/17 12:49:43;;;;;;;2.53;1.63;;;9.60;99.90;;;;;;4993041;28;20084;-75
2021/12/17 12:52:30;;;;;;;1.50;1.13;;;9.50;99.90;;;;;;4992509;28;20030;-75
2021/12/17 12:54:58;;;;;;;2.23;1.27;;;9.60;99.90;;;;;;5006293;28;20829;-75
2021/12/17 12:57:25;;;;;;;1.70;1.07;;;8.70;99.90;;;;;;5013409;28;20029;-81
2021/12/17 12:59:53;;;;;;;1.73;1.37;;;9.60;99.90;;;;;;5006287;28;20018;-75
2021/12/17 13:02:19;;;;;;;2.00;1.53;;;;;;;;;;4993612;28;20454;-74
2021/12/17 13:04:46;;;;;;;2.83;2.27;;;9.40;99.90;;;;;;4993104;28;20077;-72
2021/12/17 13:07:14;;;;;;;2.77;2.10;;;9.60;99.90;;;;;;4991634;28;20048;-72
2021/12/17 13:09:43;;;;;;;9.80;3.50;;;9.60;99.90;;;;;;4994444;28;20107;-75
2021/12/17 13:12:10;;;;;;;3.00;1.90;;;9.70;99.90;;;;;;4989616;28;20432;-75
2021/12/17 13:14:45;;;;;;;3.03;2.20;;;9.80;99.90;;;;;;4993040;28;20117;-74
2021/12/17 13:17:40;;;;;;;2.73;2.43;;;9.70;99.90;;;;;;4990080;28;20043;-75
2021/12/17 13:20:41;;;;;;;4.23;2.23;;;9.70;99.90;;;;;;4996626;28;20041;-75
2021/12/17 13:23:18;;;;;;;4.10;2.13;;;10.00;99.90;;;;;;4992145;28;20042;-75
2021/12/17 13:25:44;;;;;;;2.30;1.60;;;;;;;;;;4997314;28;20052;-75
2021/12/17 13:28:10;;;;;;;2.20;1.57;;;;;;;;;;4992541;28;20072;-75
2021/12/17 13:30:36;;;;;;;2.57;1.97;;;;;;;;;;4993119;28;20062;-75
2021/12/17 13:33:02;;;;;;;3.70;1.73;;;;;;;;;;4992365;28;20053;-75
2021/12/17 13:35:33;;;;;;;2.97;2.30;;;9.90;99.90;;;;;;4991934;28;20026;-75
2021/12/17 13:38:01;;;;;;;4.70;1.70;;;9.90;99.90;;;;;;4991466;28;20057;-75
2021/12/17 13:40:27;;;;;;;3.40;1.60;;;9.90;99.90;;;;;;4992521;28;20671;-75
2021/12/17 13:42:55;;;;;;;2.23;1.53;;;9.80;99.90;;;;;;5006888;28;20069;-75
2021/12/17 13:45:22;;;;;;;2.13;1.93;;;10.20;99.90;;;;;;4991873;28;20033;-75
2021/12/17 13:47:50;;;;;;;3.50;1.67;;;9.80;99.90;;;;;;4994787;28;20022;-75
2021/12/17 13:50:25;;;;;;;3.70;1.80;;;9.70;99.90;;;;;;4991658;28;20019;-75
2021/12/17 13:53:05;;;;;;;2.40;1.90;;;9.90;99.90;;;;;;4991850;28;20045;-75
2021/12/17 13:55:53;;;;;;;4.67;2.80;;;9.90;99.90;;;;;;5005065;28;20483;-75
2021/12/17 13:58:24;;;;;;;3.47;1.83;;;9.90;99.90;;;;;;4993626;28;20046;-75
2021/12/17 14:00:55;;;;;;;2.73;2.17;;;9.70;99.90;;;;;;4997464;28;20038;-76
2021/12/17 14:03:33;;;;;;;3.37;1.83;;;9.80;99.90;;;;;;4991763;28;20400;-76
2021/12/17 14:06:10;;;;;;;3.00;2.13;;;9.80;99.90;;;;;;4990692;28;20708;-75
2021/12/17 14:08:41;;;;;;;3.57;2.03;;;9.90;99.90;;;;;;4991906;28;20026;-75
2021/12/17 14:11:24;;;;;;;2.43;1.73;;;9.70;99.90;;;;;;4990836;28;20357;-75
2021/12/17 14:13:50;;;;;;;2.35;2.10;;;9.90;99.90;;;;;;4990278;28;20091;-76
2021/12/17 14:16:29;;;;;;;3.50;1.80;;;9.70;99.90;;;;;;4990951;28;20551;-74
2021/12/17 14:18:59;;;;;;;2.60;2.23;;;9.80;99.90;;;;;;4993086;28;20022;-75
2021/12/17 14:21:30;;;;;;;3.47;2.50;;;9.80;99.90;;;;;;4991499;28;20035;-75
2021/12/17 14:23:55;;;;;;;3.17;2.53;;;9.70;99.90;;;;;;4990590;28;20031;-76
2021/12/17 14:26:29;;;;;;;3.60;2.40;;;9.70;99.90;;;;;;4991353;28;20109;-75
2021/12/17 14:28:55;;;;;;;2.72;2.53;;;9.50;99.90;;;;;;4995496;28;20026;-76
2021/12/17 14:31:23;;;;;;;3.83;2.57;;;9.70;99.90;;;;;;5001950;28;20451;-75
2021/12/17 14:33:52;;;;;;;4.87;2.60;;;9.60;99.90;;;;;;4990608;28;20037;-75
2021/12/17 14:36:26;;;;;;;3.03;2.20;;;9.60;99.90;;;;;;4991040;28;20022;-75
2021/12/17 14:38:57;;;;;;;;;;;9.70;99.90;;;;;;4991632;28;20042;-75
2021/12/17 14:41:47;;;;;;;6.63;3.07;;;9.40;99.90;;;;;;4990144;28;19999;-75
2021/12/17 14:46:55;;;;;;;7.65;3.45;;;10.00;99.90;;;;;;5003710;28;20045;-75
2021/12/17 15:03:41;;;;;;;4.27;3.83;;;9.60;99.90;;;;;;4991616;28;20090;-75
2021/12/17 15:06:13;;;;;;;6.67;3.47;;;9.60;99.90;;;;;;4988539;28;20034;-76
2021/12/17 15:08:39;;;;;;;4.23;2.93;;;9.40;99.90;;;;;;4992380;28;20632;-76
2021/12/17 15:11:13;;;;;;;4.37;2.63;;;9.40;99.90;;;;;;4988671;28;20479;-75
2021/12/17 15:13:39;;;;;;;4.57;3.90;;;9.40;99.90;;;;;;4988862;28;20057;-75
2021/12/17 15:16:05;;;;;;;4.17;3.17;;;9.50;99.90;;;;;;4988301;28;20042;-75
2021/12/17 15:18:31;;;;;;;4.77;4.23;;;9.50;99.90;;;;;;4988728;28;20081;-75
2021/12/17 15:20:56;;;;;;;5.77;3.53;;;9.60;99.90;;;;;;4988396;28;20562;-75
2021/12/17 15:23:23;;;;;;;3.63;2.57;;;9.90;99.90;;;;;;5003010;28;20069;-76
2021/12/17 15:25:50;;;;;;;5.20;3.10;;;9.50;99.90;;;;;;4991788;28;20029;-76
2021/12/17 15:28:19;;;;;;;3.67;2.90;;;9.40;99.90;;;;;;5008114;28;20029;-76
2021/12/17 15:30:48;;;;;;;3.80;2.97;;;9.60;99.90;;;;;;5007463;28;20022;-76
2021/12/17 15:33:15;;;;;;;5.30;3.17;;;;;;;;;;4987012;28;20104;-76
2021/12/17 15:35:42;;;;;;;4.00;3.43;;;9.50;99.90;;;;;;4992382;28;20026;-75
2021/12/17 15:38:09;;;;;;;5.43;4.10;;;;;;;;;;4990069;28;20092;-75
2021/12/17 15:40:37;;;;;;;6.07;4.60;;;9.50;99.90;;;;;;4989969;28;20030;-75
2021/12/17 15:43:03;;;;;;;5.63;4.07;;;;;;;;;;4989721;28;20026;-76
2021/12/17 15:45:33;;;;;;;5.17;4.37;;;9.40;99.90;;;;;;4990388;28;20023;-75
2021/12/17 15:47:59;;;;;;;5.60;4.80;;;9.40;99.90;;;;;;4989686;28;20026;-75
2021/12/17 15:50:25;;;;;;;5.43;4.47;;;;;;;;;;4988997;28;20033;-76
2021/12/17 15:52:51;;;;;;;5.43;4.17;;;9.40;99.90;;;;;;4990242;28;20157;-75
2021/12/17 15:55:22;;;;;;;4.57;4.10;;;9.40;99.90;;;;;;4990439;28;20453;-75
2021/12/17 15:57:48;;;;;;;4.33;3.93;;;9.40;99.90;;;;;;4989771;28;20018;-75
2021/12/17 16:00:16;;;;;;;6.87;5.13;;;9.50;99.90;;;;;;4989501;28;20026;-75
2021/12/17 16:02:42;;;;;;;8.63;6.77;;;9.20;99.90;;;;;;4994005;28;20022;-76
2021/12/17 16:05:10;;;;;;;6.93;5.40;;;9.50;99.90;;;;;;4994103;28;20058;-75
2021/12/17 16:07:37;;;;;;;6.53;5.30;;;9.40;99.90;;;;;;4994334;28;20018;-76